createdAt,value
2024-01-25T00:00:54.292Z,6.60
2024-01-25T00:03:30.402Z,6.60
2024-01-25T00:06:05.346Z,6.60
2024-01-25T00:08:40.194Z,6.60
2024-01-25T00:11:08.507Z,6.50
2024-01-25T00:13:43.156Z,6.50
2024-01-25T00:16:11.060Z,6.50
2024-01-25T00:18:47.225Z,6.50
2024-01-25T00:21:15.161Z,6.50
2024-01-25T00:23:49.241Z,6.50
2024-01-25T00:26:17.342Z,6.50
2024-01-25T00:28:51.208Z,6.50
2024-01-25T00:31:19.734Z,6.50
2024-01-25T00:33:55.415Z,6.50
2024-01-25T00:36:24.171Z,6.50
2024-01-25T00:39:00.200Z,6.50
2024-01-25T00:41:29.247Z,6.50
2024-01-25T00:44:04.180Z,6.50
2024-01-25T00:46:32.486Z,6.50
2024-01-25T00:49:09.391Z,6.50
2024-01-25T00:51:38.873Z,6.50
2024-01-25T00:54:14.203Z,6.50
2024-01-25T00:56:42.589Z,6.40
2024-01-25T00:59:19.218Z,6.50
2024-01-25T01:01:49.610Z,6.50
2024-01-25T01:04:27.234Z,6.40
2024-01-25T01:07:02.807Z,6.40
2024-01-25T01:09:37.267Z,6.50
2024-01-25T01:12:05.753Z,6.50
2024-01-25T01:14:40.233Z,6.50
2024-01-25T01:17:08.194Z,6.50
2024-01-25T01:19:44.355Z,6.40
2024-01-25T01:22:12.853Z,6.40
2024-01-25T01:24:47.239Z,6.50
2024-01-25T01:27:15.752Z,6.50
2024-01-25T01:29:50.209Z,6.40
2024-01-25T01:32:18.932Z,6.50
2024-01-25T01:34:55.318Z,6.50
2024-01-25T01:37:23.371Z,6.50
2024-01-25T01:39:58.244Z,6.50
2024-01-25T01:42:26.281Z,6.50
2024-01-25T01:45:01.229Z,6.50
2024-01-25T01:47:29.208Z,6.50
2024-01-25T01:50:05.334Z,6.60
2024-01-25T01:52:33.468Z,6.60
2024-01-25T01:55:08.240Z,6.60
2024-01-25T01:57:37.044Z,6.50
2024-01-25T02:00:16.262Z,6.60
2024-01-25T02:02:44.574Z,6.60
2024-01-25T02:05:27.402Z,6.60
2024-01-25T02:07:55.438Z,6.60
2024-01-25T02:10:30.297Z,6.60
2024-01-25T02:12:58.685Z,6.60
2024-01-25T02:15:33.244Z,6.70
2024-01-25T02:18:30.337Z,6.70
2024-01-25T02:21:06.209Z,6.60
2024-01-25T02:23:35.471Z,6.60
2024-01-25T02:26:10.289Z,6.70
2024-01-25T02:28:38.176Z,6.60
2024-01-25T02:31:13.356Z,6.60
2024-01-25T02:33:41.529Z,6.60
2024-01-25T02:36:16.214Z,6.60
2024-01-25T02:38:45.530Z,6.60
2024-01-25T02:41:20.232Z,6.60
2024-01-25T02:43:48.082Z,6.60
2024-01-25T02:46:21.353Z,6.50
2024-01-25T02:48:49.510Z,6.50
2024-01-25T02:51:26.721Z,6.50
2024-01-25T02:53:55.933Z,6.40
2024-01-25T02:56:30.266Z,6.40
2024-01-25T02:58:58.218Z,6.30
2024-01-25T03:01:26.195Z,6.40
2024-01-25T03:04:00.347Z,6.30
2024-01-25T03:06:35.054Z,6.30
2024-01-25T03:09:12.272Z,6.30
2024-01-25T03:11:40.201Z,6.30
2024-01-25T03:14:14.419Z,6.20
2024-01-25T03:16:42.283Z,6.20
2024-01-25T03:19:16.396Z,6.20
2024-01-25T03:21:50.920Z,6.20
2024-01-25T03:24:26.259Z,6.20
2024-01-25T03:26:54.194Z,6.20
2024-01-25T03:29:28.210Z,6.10
2024-01-25T03:31:56.068Z,6.10
2024-01-25T03:34:31.305Z,6.10
2024-01-25T03:36:59.222Z,6.10
2024-01-25T03:39:35.319Z,6.20
2024-01-25T03:42:03.495Z,6.20
2024-01-25T03:44:38.343Z,6.20
2024-01-25T03:47:06.933Z,6.20
2024-01-25T03:49:41.417Z,6.20
2024-01-25T03:52:09.768Z,6.20
2024-01-25T03:54:45.334Z,6.20
2024-01-25T03:57:13.261Z,6.20
2024-01-25T03:59:49.234Z,6.20
2024-01-25T04:02:18.162Z,6.30
2024-01-25T04:04:52.258Z,6.20
2024-01-25T04:07:20.201Z,6.20
2024-01-25T04:09:59.329Z,6.20
2024-01-25T04:12:27.258Z,6.30
2024-01-25T04:15:01.257Z,6.20
2024-01-25T04:17:29.215Z,6.20
2024-01-25T04:20:03.510Z,6.20
2024-01-25T04:22:31.679Z,6.20
2024-01-25T04:25:14.304Z,6.10
2024-01-25T04:27:42.526Z,6.10
2024-01-25T04:30:17.253Z,6.00
2024-01-25T04:32:45.302Z,5.90
2024-01-25T04:35:20.331Z,5.90
2024-01-25T04:37:48.280Z,5.90
2024-01-25T04:40:24.284Z,5.90
2024-01-25T04:42:52.234Z,5.80
2024-01-25T04:45:27.259Z,5.80
2024-01-25T04:47:55.175Z,5.80
2024-01-25T04:50:29.557Z,5.70
2024-01-25T04:52:57.862Z,5.70
2024-01-25T04:55:33.273Z,5.70
2024-01-25T04:58:01.458Z,5.70
2024-01-25T05:00:36.354Z,5.60
2024-01-25T05:03:04.385Z,5.70
2024-01-25T05:05:38.263Z,5.60
2024-01-25T05:08:13.322Z,5.60
2024-01-25T05:10:49.292Z,5.60
2024-01-25T05:13:18.107Z,5.60
2024-01-25T05:15:52.320Z,5.50
2024-01-25T05:18:20.239Z,5.50
2024-01-25T05:20:55.868Z,5.50
2024-01-25T05:23:24.557Z,5.50
2024-01-25T05:26:00.355Z,5.50
2024-01-25T05:28:28.361Z,5.50
2024-01-25T05:31:04.329Z,5.40
2024-01-25T05:33:33.820Z,5.30
2024-01-25T05:36:08.519Z,5.30
2024-01-25T05:38:36.699Z,5.40
2024-01-25T05:41:12.308Z,5.40
2024-01-25T05:43:40.202Z,5.30
2024-01-25T05:46:14.306Z,5.40
2024-01-25T05:48:42.406Z,5.50
2024-01-25T05:51:17.282Z,5.40
2024-01-25T05:53:45.244Z,5.40
2024-01-25T05:56:21.358Z,5.50
2024-01-25T05:58:49.899Z,5.50
2024-01-25T06:01:24.398Z,5.60
2024-01-25T06:03:52.364Z,5.60
2024-01-25T06:06:34.538Z,5.60
2024-01-25T06:09:11.665Z,5.60
2024-01-25T06:11:49.312Z,5.60
2024-01-25T06:14:17.153Z,5.60
2024-01-25T06:16:52.292Z,5.60
2024-01-25T06:19:20.875Z,5.60
2024-01-25T06:21:55.371Z,5.60
2024-01-25T06:24:24.383Z,5.60
2024-01-25T06:27:01.318Z,5.60
2024-01-25T06:29:29.187Z,5.60
2024-01-25T06:32:07.800Z,5.60
2024-01-25T06:34:39.133Z,5.70
2024-01-25T06:37:14.204Z,5.60
2024-01-25T06:39:44.964Z,5.70
2024-01-25T06:42:20.325Z,5.70
2024-01-25T06:45:06.597Z,5.70
2024-01-25T06:47:47.397Z,5.70
2024-01-25T06:50:15.768Z,5.70
2024-01-25T06:53:08.451Z,5.60
2024-01-25T06:55:49.877Z,5.50
2024-01-25T06:58:26.395Z,5.50
2024-01-25T07:00:54.963Z,5.50
2024-01-25T07:03:25.784Z,5.40
2024-01-25T07:06:00.506Z,5.40
2024-01-25T07:08:35.366Z,5.30
2024-01-25T07:11:10.310Z,5.30
2024-01-25T07:13:39.943Z,5.20
2024-01-25T07:16:08.425Z,5.30
2024-01-25T07:18:43.456Z,5.30
2024-01-25T07:21:11.560Z,5.20
2024-01-25T07:23:46.304Z,5.20
2024-01-25T07:26:19.267Z,5.10
2024-01-25T07:28:55.383Z,5.10
2024-01-25T07:31:23.832Z,5.20
2024-01-25T07:33:58.377Z,5.20
2024-01-25T07:36:26.361Z,5.20
2024-01-25T07:39:00.467Z,5.20
2024-01-25T07:41:28.884Z,5.20
2024-01-25T07:43:58.327Z,5.20
2024-01-25T07:46:32.369Z,5.30
2024-01-25T07:49:00.429Z,5.30
2024-01-25T07:51:36.390Z,5.20
2024-01-25T07:54:04.434Z,5.20
2024-01-25T07:56:39.443Z,5.20
2024-01-25T07:59:08.644Z,5.20
2024-01-25T08:01:44.857Z,5.20
2024-01-25T08:04:12.996Z,5.20
2024-01-25T08:06:47.411Z,5.10
2024-01-25T08:09:15.528Z,5.20
2024-01-25T08:11:50.397Z,5.20
2024-01-25T08:14:19.838Z,5.20
2024-01-25T08:16:54.330Z,5.10
2024-01-25T08:19:22.463Z,5.10
2024-01-25T08:21:57.436Z,5.10
2024-01-25T08:24:25.408Z,5.20
2024-01-25T08:26:59.312Z,5.20
2024-01-25T08:29:28.502Z,5.20
2024-01-25T08:32:03.312Z,5.20
2024-01-25T08:34:31.325Z,5.20
2024-01-25T08:37:06.395Z,5.20
2024-01-25T08:39:34.378Z,5.20
2024-01-25T08:42:11.500Z,5.20
2024-01-25T08:44:45.640Z,5.20
2024-01-25T08:47:20.336Z,5.20
2024-01-25T08:49:48.425Z,5.20
2024-01-25T08:52:17.033Z,5.20
2024-01-25T08:54:51.364Z,5.20
2024-01-25T08:57:19.457Z,5.30
2024-01-25T08:59:57.364Z,5.20
2024-01-25T09:02:28.045Z,5.20
2024-01-25T09:05:02.535Z,5.20
2024-01-25T09:07:38.018Z,5.10
2024-01-25T09:10:13.467Z,5.10
2024-01-25T09:12:41.432Z,5.00
2024-01-25T09:15:11.638Z,4.90
2024-01-25T09:17:46.716Z,4.70
2024-01-25T09:20:15.121Z,4.70
2024-01-25T09:22:44.882Z,4.60
2024-01-25T09:25:19.381Z,4.60
2024-01-25T09:27:47.341Z,4.60
2024-01-25T09:30:18.048Z,4.60
2024-01-25T09:32:53.485Z,4.60
2024-01-25T09:35:21.843Z,4.60
2024-01-25T09:38:00.383Z,4.70
2024-01-25T09:40:28.491Z,4.70
2024-01-25T09:42:57.183Z,4.60
2024-01-25T09:45:33.607Z,4.60
2024-01-25T09:48:05.446Z,4.70
2024-01-25T09:50:41.495Z,4.60
2024-01-25T09:53:16.496Z,4.60
2024-01-25T09:55:54.383Z,4.60
2024-01-25T09:58:23.762Z,4.70
2024-01-25T10:00:53.978Z,4.80
2024-01-25T10:03:28.425Z,4.80
2024-01-25T10:06:06.187Z,4.70
2024-01-25T10:08:40.341Z,4.60
2024-01-25T10:11:09.182Z,4.50
2024-01-25T10:13:50.520Z,4.50
2024-01-25T10:16:20.751Z,4.40
2024-01-25T10:18:56.637Z,4.50
2024-01-25T10:21:25.068Z,4.50
2024-01-25T10:23:55.409Z,4.50
2024-01-25T10:26:30.426Z,4.50
2024-01-25T10:29:01.752Z,4.50
2024-01-25T10:31:39.522Z,4.40
2024-01-25T10:34:09.331Z,4.40
2024-01-25T10:36:46.476Z,4.40
2024-01-25T10:39:15.869Z,4.50
2024-01-25T10:41:45.829Z,4.60
2024-01-25T10:44:21.360Z,4.60
2024-01-25T10:46:51.518Z,4.60
2024-01-25T10:49:27.612Z,4.60
2024-01-25T10:51:56.010Z,4.60
2024-01-25T10:54:24.575Z,4.70
2024-01-25T10:57:01.409Z,4.60
2024-01-25T10:59:31.897Z,4.70
2024-01-25T11:02:09.517Z,4.70
2024-01-25T11:04:37.821Z,4.80
2024-01-25T11:07:23.453Z,4.80
2024-01-25T11:09:53.579Z,4.90
2024-01-25T11:12:22.321Z,4.80
2024-01-25T11:15:03.380Z,4.80
2024-01-25T11:17:34.548Z,4.80
2024-01-25T11:20:09.559Z,4.80
2024-01-25T11:22:37.589Z,4.90
2024-01-25T11:25:21.501Z,4.90
2024-01-25T11:27:50.753Z,4.90
2024-01-25T11:30:27.368Z,5.00
2024-01-25T11:32:57.032Z,4.90
2024-01-25T11:35:31.584Z,5.00
2024-01-25T11:37:59.745Z,5.00
2024-01-25T11:40:37.698Z,5.10
2024-01-25T11:43:11.742Z,5.10
2024-01-25T11:45:50.479Z,5.10
2024-01-25T11:48:21.577Z,5.00
2024-01-25T11:50:56.368Z,5.00
2024-01-25T11:53:24.212Z,5.00
2024-01-25T11:55:58.398Z,5.10
2024-01-25T11:58:26.639Z,5.10
2024-01-25T12:01:01.565Z,5.10
2024-01-25T12:03:30.908Z,5.00
2024-01-25T12:06:06.611Z,5.00
2024-01-25T12:08:41.150Z,5.10
2024-01-25T12:11:16.424Z,5.10
2024-01-25T12:13:47.563Z,5.10
2024-01-25T12:16:22.438Z,5.10
2024-01-25T12:18:52.093Z,5.10
2024-01-25T12:21:27.402Z,5.20
2024-01-25T12:23:55.347Z,5.10
2024-01-25T12:26:30.477Z,5.20
2024-01-25T12:28:58.733Z,5.20
2024-01-25T12:31:33.500Z,5.20
2024-01-25T12:34:03.467Z,5.20
2024-01-25T12:36:31.883Z,5.20
2024-01-25T12:39:06.460Z,5.30
2024-01-25T12:41:34.488Z,5.30
2024-01-25T12:44:02.848Z,5.30
2024-01-25T12:46:37.438Z,5.20
2024-01-25T12:49:06.964Z,5.20
2024-01-25T12:51:35.402Z,5.20
2024-01-25T12:54:10.825Z,5.20
2024-01-25T12:56:39.185Z,5.20
2024-01-25T12:59:07.221Z,5.10
2024-01-25T13:01:42.457Z,5.20
2024-01-25T13:04:12.037Z,5.10
2024-01-25T13:06:53.619Z,5.10
2024-01-25T13:09:21.658Z,5.10
2024-01-25T13:11:49.818Z,5.10
2024-01-25T13:14:25.777Z,5.10
2024-01-25T13:16:53.751Z,5.00
2024-01-25T13:19:24.298Z,5.00
2024-01-25T13:21:59.543Z,5.00
2024-01-25T13:24:27.489Z,5.00
2024-01-25T13:26:55.351Z,5.00
2024-01-25T13:29:29.501Z,5.00
2024-01-25T13:31:57.417Z,4.90
2024-01-25T13:34:33.693Z,5.00
2024-01-25T13:37:01.596Z,4.90
2024-01-25T13:39:30.076Z,4.90
2024-01-25T13:42:05.413Z,4.90
2024-01-25T13:44:36.012Z,4.90
2024-01-25T13:47:10.453Z,4.90
2024-01-25T13:49:39.886Z,4.80
2024-01-25T13:52:08.123Z,4.80
2024-01-25T13:54:42.488Z,4.80
2024-01-25T13:57:10.793Z,4.80
2024-01-25T13:59:38.774Z,4.70
2024-01-25T14:02:19.431Z,4.70
2024-01-25T14:04:48.984Z,4.70
2024-01-25T14:07:24.434Z,4.70
2024-01-25T14:09:53.542Z,4.60
2024-01-25T14:12:29.479Z,4.60
2024-01-25T14:14:57.735Z,4.60
2024-01-25T14:17:32.471Z,4.60
2024-01-25T14:20:03.118Z,4.50
2024-01-25T14:22:38.601Z,4.50
2024-01-25T14:25:07.912Z,4.40
2024-01-25T14:27:43.529Z,4.40
2024-01-25T14:30:12.712Z,4.40
2024-01-25T14:32:47.481Z,4.30
2024-01-25T14:35:16.829Z,4.20
2024-01-25T14:37:51.429Z,4.20
2024-01-25T14:40:33.495Z,4.10
2024-01-25T14:43:16.451Z,4.10
2024-01-25T14:45:45.373Z,4.00
2024-01-25T14:48:20.505Z,3.90
2024-01-25T14:50:49.727Z,3.90
2024-01-25T14:53:25.436Z,3.80
2024-01-25T14:55:53.545Z,3.60
2024-01-25T14:58:29.534Z,3.70
2024-01-25T15:00:57.576Z,3.70
2024-01-25T15:03:32.510Z,3.60
2024-01-25T15:06:10.546Z,3.50
2024-01-25T15:08:45.528Z,3.40
2024-01-25T15:11:13.485Z,3.50
2024-01-25T15:13:47.550Z,3.50
2024-01-25T15:16:17.718Z,3.50
2024-01-25T15:18:53.640Z,3.40
2024-01-25T15:21:23.019Z,3.40
2024-01-25T15:23:57.469Z,3.30
2024-01-25T15:26:25.398Z,3.20
2024-01-25T15:29:00.533Z,3.10
2024-01-25T15:31:28.443Z,3.00
2024-01-25T15:34:02.618Z,3.00
2024-01-25T15:36:32.033Z,2.80
2024-01-25T15:39:07.512Z,2.80
2024-01-25T15:41:35.420Z,2.80
2024-01-25T15:44:09.481Z,2.70
2024-01-25T15:46:37.397Z,2.70
2024-01-25T15:49:12.446Z,2.70
2024-01-25T15:51:41.903Z,2.60
2024-01-25T15:54:16.478Z,2.50
2024-01-25T15:56:44.359Z,2.30
2024-01-25T15:59:18.457Z,2.30
2024-01-25T16:01:46.351Z,2.20
2024-01-25T16:04:20.485Z,2.10
2024-01-25T16:07:09.487Z,2.00
2024-01-25T16:09:44.496Z,1.90
2024-01-25T16:12:14.823Z,1.70
2024-01-25T16:14:49.527Z,1.70
2024-01-25T16:17:17.424Z,1.60
2024-01-25T16:19:51.627Z,1.60
2024-01-25T16:22:21.544Z,1.60
2024-01-25T16:24:56.593Z,1.50
2024-01-25T16:27:24.510Z,1.50
2024-01-25T16:30:02.397Z,1.40
2024-01-25T16:32:30.249Z,1.30
2024-01-25T16:35:04.506Z,1.10
2024-01-25T16:37:34.163Z,1.10
2024-01-25T16:40:08.509Z,0.90
2024-01-25T16:42:36.915Z,0.80
2024-01-25T16:45:11.739Z,0.70
2024-01-25T16:47:39.687Z,0.60
2024-01-25T16:50:09.576Z,0.50
2024-01-25T16:52:45.686Z,0.60
2024-01-25T16:55:13.713Z,0.60
2024-01-25T16:57:41.794Z,0.60
2024-01-25T17:00:23.216Z,0.60
2024-01-25T17:02:51.601Z,0.70
2024-01-25T17:05:19.721Z,0.60
2024-01-25T17:07:56.508Z,0.60
2024-01-25T17:10:24.813Z,0.60
2024-01-25T17:12:59.602Z,0.60
2024-01-25T17:15:27.534Z,0.50
2024-01-25T17:17:55.498Z,0.50
2024-01-25T17:20:29.489Z,0.50
2024-01-25T17:22:58.946Z,0.60
2024-01-25T17:25:27.074Z,0.70
2024-01-25T17:28:01.671Z,0.70
2024-01-25T17:30:29.600Z,0.60
2024-01-25T17:32:57.548Z,0.60
2024-01-25T17:35:31.452Z,0.60
2024-01-25T17:38:00.659Z,0.60
2024-01-25T17:40:35.538Z,0.70
2024-01-25T17:43:03.777Z,0.70
2024-01-25T17:45:38.704Z,0.70
2024-01-25T17:48:07.398Z,0.70
2024-01-25T17:50:41.803Z,0.70
2024-01-25T17:53:11.087Z,0.70
2024-01-25T17:55:39.538Z,0.70
2024-01-25T17:58:14.473Z,0.70
2024-01-25T18:00:42.682Z,0.70
2024-01-25T18:03:17.526Z,0.70
2024-01-25T18:05:45.579Z,0.60
2024-01-25T18:08:28.497Z,0.50
2024-01-25T18:10:57.174Z,0.50
2024-01-25T18:13:32.495Z,0.50
2024-01-25T18:16:00.533Z,0.60
2024-01-25T18:18:28.667Z,0.70
2024-01-25T18:21:03.464Z,0.70
2024-01-25T18:23:33.779Z,0.80
2024-01-25T18:26:09.516Z,0.70
2024-01-25T18:28:37.960Z,0.70
2024-01-25T18:31:05.971Z,0.70
2024-01-25T18:33:42.744Z,0.70
2024-01-25T18:36:12.888Z,0.70
2024-01-25T18:38:42.256Z,0.60
2024-01-25T18:41:17.861Z,0.60
2024-01-25T18:43:46.116Z,0.60
2024-01-25T18:46:14.028Z,0.60
2024-01-25T18:48:48.658Z,0.60
2024-01-25T18:51:17.015Z,0.60
2024-01-25T18:53:46.956Z,0.70
2024-01-25T18:56:27.369Z,0.60
2024-01-25T18:58:56.852Z,0.60
2024-01-25T19:01:33.640Z,0.70
2024-01-25T19:04:03.790Z,0.60
2024-01-25T19:06:48.576Z,0.60
2024-01-25T19:09:26.117Z,0.40
2024-01-25T19:12:00.706Z,0.50
2024-01-25T19:14:28.695Z,0.50
2024-01-25T19:16:56.631Z,0.60
2024-01-25T19:19:31.820Z,0.60
2024-01-25T19:22:00.133Z,0.50
2024-01-25T19:24:29.637Z,0.60
2024-01-25T19:27:07.240Z,0.60
2024-01-25T19:29:36.357Z,0.70
2024-01-25T19:32:11.551Z,0.70
2024-01-25T19:34:39.725Z,0.70
2024-01-25T19:37:09.020Z,0.70
2024-01-25T19:39:44.554Z,0.70
2024-01-25T19:42:12.558Z,0.60
2024-01-25T19:44:40.775Z,0.60
2024-01-25T19:47:16.535Z,0.60
2024-01-25T19:49:44.504Z,0.40
2024-01-25T19:52:18.578Z,0.50
2024-01-25T19:54:48.136Z,0.50
2024-01-25T19:57:17.154Z,0.50
2024-01-25T19:59:52.602Z,0.50
2024-01-25T20:02:22.201Z,0.60
2024-01-25T20:04:51.070Z,0.50
2024-01-25T20:07:26.782Z,0.50
2024-01-25T20:09:56.238Z,0.60
2024-01-25T20:12:33.536Z,0.60
2024-01-25T20:15:01.526Z,0.60
2024-01-25T20:17:35.548Z,0.50
2024-01-25T20:20:04.516Z,0.50
2024-01-25T20:22:39.519Z,0.50
2024-01-25T20:25:09.609Z,0.50
2024-01-25T20:27:44.576Z,0.50
2024-01-25T20:30:13.607Z,0.50
2024-01-25T20:32:48.592Z,0.60
2024-01-25T20:35:16.522Z,0.50
2024-01-25T20:37:50.526Z,0.50
2024-01-25T20:40:19.752Z,0.40
2024-01-25T20:42:54.594Z,0.40
2024-01-25T20:45:23.545Z,0.40
2024-01-25T20:47:58.609Z,0.40
2024-01-25T20:50:34.667Z,0.30
2024-01-25T20:53:13.601Z,0.30
2024-01-25T20:55:43.231Z,0.20
2024-01-25T20:58:17.563Z,0.10
2024-01-25T21:00:45.857Z,0.10
2024-01-25T21:03:22.571Z,0.00
2024-01-25T21:05:51.396Z,0.10
2024-01-25T21:08:33.542Z,0.20
2024-01-25T21:11:04.891Z,0.20
2024-01-25T21:13:40.682Z,0.10
2024-01-25T21:16:10.221Z,0.00
2024-01-25T21:18:45.642Z,0.00
2024-01-25T21:21:15.940Z,0.10
2024-01-25T21:23:50.534Z,0.20
2024-01-25T21:26:19.804Z,0.10
2024-01-25T21:28:54.545Z,0.30
2024-01-25T21:31:23.658Z,0.40
2024-01-25T21:33:57.951Z,0.70
2024-01-25T21:36:26.601Z,0.90
2024-01-25T21:39:00.550Z,1.10
2024-01-25T21:41:29.993Z,1.10
2024-01-25T21:44:04.633Z,1.10
2024-01-25T21:46:32.573Z,1.10
2024-01-25T21:49:08.754Z,1.10
2024-01-25T21:51:45.223Z,1.10
2024-01-25T21:54:20.639Z,1.20
2024-01-25T21:56:50.880Z,1.30
2024-01-25T21:59:26.551Z,1.40
2024-01-25T22:01:54.561Z,1.40
2024-01-25T22:04:30.594Z,1.40
2024-01-25T22:07:19.585Z,1.50
2024-01-25T22:09:54.635Z,1.60
2024-01-25T22:12:23.991Z,1.60
2024-01-25T22:14:51.905Z,1.60
2024-01-25T22:17:26.726Z,1.60
2024-01-25T22:19:54.755Z,1.70
2024-01-25T22:22:22.702Z,1.60
2024-01-25T22:24:56.666Z,1.70
2024-01-25T22:27:26.260Z,1.70
2024-01-25T22:29:54.391Z,1.70
2024-01-25T22:32:28.634Z,1.70
2024-01-25T22:34:56.655Z,1.70
2024-01-25T22:37:25.005Z,1.80
2024-01-25T22:39:59.639Z,1.80
2024-01-25T22:42:31.183Z,1.90
2024-01-25T22:45:05.720Z,1.90
2024-01-25T22:47:33.622Z,1.90
2024-01-25T22:50:01.497Z,1.90
2024-01-25T22:52:35.682Z,1.90
2024-01-25T22:55:04.979Z,1.90
2024-01-25T22:57:34.401Z,2.00
2024-01-25T23:00:11.590Z,2.00
2024-01-25T23:02:39.718Z,2.00
2024-01-25T23:05:15.699Z,2.00
2024-01-25T23:08:04.543Z,2.10
2024-01-25T23:10:39.669Z,2.10
2024-01-25T23:13:09.776Z,2.10
2024-01-25T23:15:38.213Z,2.10
2024-01-25T23:18:13.930Z,2.10
2024-01-25T23:20:42.242Z,2.10
2024-01-25T23:23:17.587Z,2.10
2024-01-25T23:25:47.702Z,2.20
2024-01-25T23:28:23.589Z,2.20
2024-01-25T23:30:51.733Z,2.20
2024-01-25T23:33:30.661Z,2.20
2024-01-25T23:35:59.153Z,2.20
2024-01-25T23:38:33.556Z,2.20
2024-01-25T23:41:01.763Z,2.10
2024-01-25T23:43:37.598Z,2.10
2024-01-25T23:46:06.009Z,2.10
2024-01-25T23:48:40.770Z,2.10
2024-01-25T23:51:09.030Z,2.20
2024-01-25T23:53:43.625Z,2.20
2024-01-25T23:56:11.600Z,2.20
2024-01-25T23:58:47.632Z,2.30
